CMA CGM Tosca — FMEL — position and weather

sailwx.info

Track history (hours):
 
Tides and Currents Weather Stations Pressure Air Temp Water Temp Dewpoint Dewpoint Depression Visibility Wind Speed Wind Dir Waves Ship Positions

CMA CGM Tosca

Last reported at 2014-Nov-23 15:07 UTC. Time now 2014-Nov-29 03:40 UTC.
Position S 24°20' W 046°20'.

; draft 12.4 m.

Type: Cargo ship. MMSI: 228335900.

Date/timePositionNaut miles runAvg speedWind from/ knotsBaromVisibWave heightAir tempDewpointWater temp
2014-Nov-23 15:07S 24°20' W 046°20'1016.8
2014-Nov-23 14:33S 24°10' W 046°22'1010.0
2014-Nov-23 13:33S 24°00' W 046°20'5 4.6
2014-Nov-23 12:33S 23°56' W 046°19'0 0.1
2014-Nov-23 11:27S 23°56' W 046°19'0 0.0
2014-Nov-23 10:30S 23°56' W 046°19'0 0.0
2014-Nov-23 09:30S 23°56' W 046°19'0 0.0
2014-Nov-23 08:30S 23°56' W 046°19'0 0.0
2014-Nov-23 07:33S 23°56' W 046°19'0 0.0
2014-Nov-23 06:33S 23°56' W 046°19'0 0.0
2014-Nov-23 05:30S 23°56' W 046°19'0 0.0
2014-Nov-23 04:33S 23°56' W 046°19'0 0.0
2014-Nov-23 03:33S 23°56' W 046°19'0 0.0
2014-Nov-23 02:33S 23°56' W 046°19'0 0.0
2014-Nov-23 01:30S 23°56' W 046°19'0 0.0
2014-Nov-23 00:30S 23°56' W 046°19'0 0.0
2014-Nov-22 23:30S 23°56' W 046°19'0 0.0
2014-Nov-22 22:30S 23°56' W 046°19'0 0.0
2014-Nov-22 21:30S 23°56' W 046°19'0 0.0
2014-Nov-22 20:33S 23°56' W 046°19'0 0.0
2014-Nov-22 19:33S 23°56' W 046°19'0 0.0
2014-Nov-22 18:33S 23°56' W 046°19'0 0.0
2014-Nov-22 17:30S 23°56' W 046°19'0 0.0
2014-Nov-22 16:33S 23°56' W 046°19'0 0.0
2014-Nov-22 15:33S 23°56' W 046°19'0 0.0
2014-Nov-22 14:31S 23°56' W 046°19'0 0.0
2014-Nov-22 13:31S 23°56' W 046°19'0 0.0
2014-Nov-22 12:31S 23°56' W 046°19'4 3.9
2014-Nov-22 11:33S 23°59' W 046°17'9 8.8
2014-Nov-22 10:34S 24°06' W 046°23'215 6.7
2014-Nov-21 02:17S 27°18' W 048°10'811.0
2014-Nov-21 01:33S 27°26' W 048°10'1111.2
2014-Nov-21 00:33S 27°37' W 048°10'1111.1
2014-Nov-20 23:33S 27°49' W 048°10'  
2014-Nov-14 15:32S 34°35' W 058°22'0 0.0
2014-Nov-14 12:32S 34°35' W 058°22'0 0.0
2014-Nov-14 10:17S 34°35' W 058°22'0 0.0
2014-Nov-14 09:26S 34°35' W 058°22'0 0.0
2014-Nov-14 08:32S 34°35' W 058°22'0 0.0
2014-Nov-14 07:32S 34°35' W 058°22'0 0.0
2014-Nov-14 06:29S 34°35' W 058°22'0 0.0
2014-Nov-14 05:32S 34°35' W 058°22'0 0.0
2014-Nov-14 04:32S 34°35' W 058°22'0 0.0
2014-Nov-14 03:32S 34°35' W 058°22'0 0.0
2014-Nov-14 01:23S 34°35' W 058°22'0 0.0
2014-Nov-14 00:29S 34°35' W 058°22'0 0.0
2014-Nov-13 21:29S 34°35' W 058°22'  
Track history (hours):
 
Tides and Currents Weather Stations Pressure Air Temp Water Temp Dewpoint Dewpoint Depression Visibility Wind Speed Wind Dir Waves Ship Positions

CMA CGM Tosca

Last reported at 2014-Nov-23 15:07 UTC. Time now 2014-Nov-29 03:40 UTC.
Position S 24°20' W 046°20'.

; draft 12.4 m.

Type: Cargo ship. MMSI: 228335900.

Date/timePositionNaut miles runAvg speedWind from/ knotsBaromVisibWave heightAir tempDewpointWater temp
2014-Nov-23 15:07S 24°20' W 046°20'1016.8
2014-Nov-23 14:33S 24°10' W 046°22'1010.0
2014-Nov-23 13:33S 24°00' W 046°20'5 4.6
2014-Nov-23 12:33S 23°56' W 046°19'0 0.1
2014-Nov-23 11:27S 23°56' W 046°19'0 0.0
2014-Nov-23 10:30S 23°56' W 046°19'0 0.0
2014-Nov-23 09:30S 23°56' W 046°19'0 0.0
2014-Nov-23 08:30S 23°56' W 046°19'0 0.0
2014-Nov-23 07:33S 23°56' W 046°19'0 0.0
2014-Nov-23 06:33S 23°56' W 046°19'0 0.0
2014-Nov-23 05:30S 23°56' W 046°19'0 0.0
2014-Nov-23 04:33S 23°56' W 046°19'0 0.0
2014-Nov-23 03:33S 23°56' W 046°19'0 0.0
2014-Nov-23 02:33S 23°56' W 046°19'0 0.0
2014-Nov-23 01:30S 23°56' W 046°19'0 0.0
2014-Nov-23 00:30S 23°56' W 046°19'0 0.0
2014-Nov-22 23:30S 23°56' W 046°19'0 0.0
2014-Nov-22 22:30S 23°56' W 046°19'0 0.0
2014-Nov-22 21:30S 23°56' W 046°19'0 0.0
2014-Nov-22 20:33S 23°56' W 046°19'0 0.0
2014-Nov-22 19:33S 23°56' W 046°19'0 0.0
2014-Nov-22 18:33S 23°56' W 046°19'0 0.0
2014-Nov-22 17:30S 23°56' W 046°19'0 0.0
2014-Nov-22 16:33S 23°56' W 046°19'0 0.0
2014-Nov-22 15:33S 23°56' W 046°19'0 0.0
2014-Nov-22 14:31S 23°56' W 046°19'0 0.0
2014-Nov-22 13:31S 23°56' W 046°19'0 0.0
2014-Nov-22 12:31S 23°56' W 046°19'4 3.9
2014-Nov-22 11:33S 23°59' W 046°17'9 8.8
2014-Nov-22 10:34S 24°06' W 046°23'215 6.7
2014-Nov-21 02:17S 27°18' W 048°10'811.0
2014-Nov-21 01:33S 27°26' W 048°10'1111.2
2014-Nov-21 00:33S 27°37' W 048°10'1111.1
2014-Nov-20 23:33S 27°49' W 048°10'  
2014-Nov-14 15:32S 34°35' W 058°22'0 0.0
2014-Nov-14 12:32S 34°35' W 058°22'0 0.0
2014-Nov-14 10:17S 34°35' W 058°22'0 0.0
2014-Nov-14 09:26S 34°35' W 058°22'0 0.0
2014-Nov-14 08:32S 34°35' W 058°22'0 0.0
2014-Nov-14 07:32S 34°35' W 058°22'0 0.0
2014-Nov-14 06:29S 34°35' W 058°22'0 0.0
2014-Nov-14 05:32S 34°35' W 058°22'0 0.0
2014-Nov-14 04:32S 34°35' W 058°22'0 0.0
2014-Nov-14 03:32S 34°35' W 058°22'0 0.0
2014-Nov-14 01:23S 34°35' W 058°22'0 0.0
2014-Nov-14 00:29S 34°35' W 058°22'0 0.0
2014-Nov-13 21:29S 34°35' W 058°22'  

Dump ship's entire track history